Lens, Belgium
Current Conditions -  °F | °C
As of 8:06 AM on Monday 24 Nov 2014 (Local Time) from EBCV Reporting Station
Scattered Clouds Scattered Clouds  
Wind Chill: 43°   Ceiling: Unl
Heat Index: 43°   Visibility: 2.2mi
Dew Point: 43°   Wind: 1mph
Humidity: 100%   Direction: NA
Pressure: 30.24"   Gusts: NA
Location:  50.56°N, 3.9°E
Report Text: EBCV 240706Z AUTO VRB01KT 3600 SCT022/// 06/06 Q1024 YLO
Loading
Personal Weather Stations






























Interactive Weather Map New forecast layout! Learn more

10-Day Weather Forecast

Advertisements
Track Severe Weather on mobile